Time;durP1;ratioP1;P1;durP2;ratioP2;P2;SDS_P1;SDS_P2;PMS_P1;PMS_P2;Temp;Humidity;BMP_temperature;BMP_pressure;BME280_temperature;BME280_humidity;BME280_pressure;Samples;Min_cycle;Max_cycle;Signal;HPM_P1;HPM_P2
2020/12/21 00:01:20;;;;;;;0.30;0.20;;;;;;;7.00;100.00;100973.56;4999393;28;20863;-50
2020/12/21 00:03:46;;;;;;;0.30;0.17;;;;;;;6.96;100.00;100977.06;4995207;28;20873;-50
2020/12/21 00:06:16;;;;;;;0.30;0.20;;;;;;;6.93;100.00;100974.44;4994997;28;20453;-50
2020/12/21 00:08:43;;;;;;;0.30;0.20;;;;;;;6.96;100.00;100978.84;5001718;28;20484;-50
2020/12/21 00:11:09;;;;;;;0.30;0.20;;;;;;;7.23;100.00;100970.81;5006540;28;20450;-50
2020/12/21 00:13:44;;;;;;;0.37;0.37;;;;;;;7.03;100.00;100968.25;5004289;28;20823;-50
2020/12/21 00:16:11;;;;;;;0.47;0.47;;;;;;;6.96;100.00;100968.28;4999349;28;20447;-50
2020/12/21 00:18:38;;;;;;;1.07;1.07;;;;;;;7.27;100.00;100974.34;5000194;28;20477;-50
2020/12/21 00:21:05;;;;;;;0.47;0.47;;;;;;;7.29;100.00;100962.00;5006365;28;20492;-50
2020/12/21 00:23:32;;;;;;;0.30;0.20;;;;;;;7.04;100.00;100963.84;5004444;28;20448;-50
2020/12/21 00:25:58;;;;;;;0.30;0.20;;;;;;;7.03;100.00;100962.09;4999605;28;20460;-50
2020/12/21 00:28:24;;;;;;;0.30;0.20;;;;;;;6.84;100.00;100963.88;5000085;28;20474;-50
2020/12/21 00:30:50;;;;;;;0.30;0.20;;;;;;;6.88;100.00;100964.78;5006094;28;20450;-50
2020/12/21 00:33:32;;;;;;;0.30;0.20;;;;;;;6.89;100.00;100963.91;5006351;28;20467;-50
2020/12/21 00:35:58;;;;;;;0.27;0.20;;;;;;;6.89;100.00;100963.91;5000641;28;20452;-50
2020/12/21 00:38:24;;;;;;;0.30;0.20;;;;;;;6.71;100.00;100964.81;4995293;28;20488;-50
2020/12/21 00:40:50;;;;;;;0.30;0.20;;;;;;;6.68;100.00;100959.53;5005456;28;20504;-50
2020/12/21 00:43:16;;;;;;;0.30;0.10;;;;;;;6.62;100.00;100960.44;5005790;28;20448;-50
2020/12/21 00:45:43;;;;;;;0.30;0.20;;;;;;;6.59;100.00;100965.72;5000903;28;20506;-50
2020/12/21 00:48:09;;;;;;;0.30;0.20;;;;;;;6.60;100.00;100954.28;4999427;28;20998;-50
2020/12/21 00:50:35;;;;;;;0.23;0.10;;;;;;;6.62;100.00;100960.44;5004582;28;20445;-50
2020/12/21 00:53:02;;;;;;;0.30;0.20;;;;;;;6.66;100.00;100951.63;5005974;28;20513;-50
2020/12/21 00:55:28;;;;;;;0.30;0.10;;;;;;;6.54;100.00;100959.56;5000803;28;20452;-50
2020/12/21 00:57:54;;;;;;;0.30;0.20;;;;;;;6.56;100.00;100964.81;4985921;28;20527;-50
2020/12/21 01:00:20;;;;;;;0.30;0.20;;;;;;;6.49;100.00;100966.63;5002671;28;20493;-50
2020/12/21 01:02:46;;;;;;;0.80;0.80;;;;;;;6.54;100.00;100954.28;5005699;28;20450;-50
2020/12/21 01:05:12;;;;;;;0.30;0.20;;;;;;;6.61;100.00;100958.69;4983542;28;20468;-51
2020/12/21 01:07:38;;;;;;;0.30;0.20;;;;;;;6.72;100.00;100953.38;5005623;28;20559;-50
2020/12/21 01:10:05;;;;;;;0.30;0.20;;;;;;;6.60;100.00;100956.91;5001410;28;20441;-50
2020/12/21 01:12:31;;;;;;;0.30;0.20;;;;;;;6.69;100.00;100963.94;4998983;28;20526;-50
2020/12/21 01:14:57;;;;;;;0.30;0.10;;;;;;;6.56;100.00;100968.34;5002858;28;20959;-50
2020/12/21 01:17:23;;;;;;;0.30;0.20;;;;;;;6.51;100.00;100971.00;5005549;28;21064;-50
2020/12/21 01:19:49;;;;;;;0.30;0.20;;;;;;;6.42;100.00;100976.28;5002027;28;20496;-50
2020/12/21 01:22:15;;;;;;;0.20;0.20;;;;;;;6.43;100.00;100974.53;4998908;28;20465;-50
2020/12/21 01:24:41;;;;;;;0.30;0.20;;;;;;;6.44;100.00;100977.19;5002650;28;21026;-50
2020/12/21 01:27:08;;;;;;;0.30;0.20;;;;;;;6.41;100.00;100976.28;5008689;28;20473;-50
2020/12/21 01:29:34;;;;;;;1.27;1.00;;;;;;;6.34;100.00;100980.72;5005662;28;20452;-50
2020/12/21 01:32:00;;;;;;;2.43;2.33;;;;;;;6.40;100.00;100974.53;5002419;28;20453;-50
2020/12/21 01:34:27;;;;;;;0.30;0.20;;;;;;;6.53;100.00;100971.00;5006025;28;20488;-50
2020/12/21 01:36:53;;;;;;;0.30;0.20;;;;;;;6.47;100.00;100974.53;5008955;28;20477;-50
2020/12/21 01:39:19;;;;;;;0.30;0.20;;;;;;;6.36;100.00;100976.31;5005333;28;20799;-50
2020/12/21 01:41:46;;;;;;;0.30;0.20;;;;;;;6.49;100.00;100975.41;5002440;28;20488;-50
2020/12/21 01:44:12;;;;;;;0.30;0.20;;;;;;;6.37;100.00;100967.50;5005874;28;20453;-50
2020/12/21 01:46:38;;;;;;;0.30;0.30;;;;;;;6.41;100.00;100974.53;5008861;28;20463;-50
2020/12/21 01:49:05;;;;;;;0.23;0.20;;;;;;;6.40;100.00;100971.88;5005862;28;20958;-49
2020/12/21 01:51:32;;;;;;;1.03;1.03;;;;;;;6.41;100.00;100968.38;5002508;28;20802;-50
2020/12/21 01:53:59;;;;;;;0.30;0.20;;;;;;;6.57;100.00;100966.59;5004964;28;20476;-50
2020/12/21 01:56:25;;;;;;;0.30;0.10;;;;;;;6.41;100.00;100971.88;5004656;28;20501;-50
2020/12/21 01:58:51;;;;;;;0.20;0.20;;;;;;;6.36;100.00;100971.03;4997633;28;20453;-50
2020/12/21 02:01:19;;;;;;;0.30;0.20;;;;;;;6.36;100.00;100972.78;5002124;28;20859;-50
2020/12/21 02:03:46;;;;;;;0.30;0.20;;;;;;;6.38;100.00;100974.53;4997465;28;20465;-49
2020/12/21 02:06:12;;;;;;;0.20;0.10;;;;;;;6.70;100.00;100973.59;4998438;28;20521;-50
2020/12/21 02:08:39;;;;;;;0.30;0.20;;;;;;;6.36;100.00;100970.16;5003345;28;20473;-50
2020/12/21 02:11:06;;;;;;;0.30;0.20;;;;;;;6.56;100.00;100972.75;5008595;28;20507;-50
2020/12/21 02:13:33;;;;;;;0.30;0.20;;;;;;;6.44;100.00;100977.19;5007185;28;20456;-50
2020/12/21 02:16:01;;;;;;;0.30;0.30;;;;;;;6.30;100.00;100967.50;5001797;28;20460;-49
2020/12/21 02:18:28;;;;;;;2.13;2.13;;;;;;;6.30;100.00;100967.50;5003150;28;20477;-49
2020/12/21 02:20:54;;;;;;;0.30;0.20;;;;;;;6.20;100.00;100961.34;5007298;28;20485;-49
2020/12/21 02:23:20;;;;;;;0.30;0.20;;;;;;;6.36;100.00;100967.50;5007599;28;20453;-48
2020/12/21 02:25:46;;;;;;;0.30;0.20;;;;;;;6.37;100.00;100969.25;5001632;28;20448;-49
2020/12/21 02:28:13;;;;;;;0.30;0.20;;;;;;;6.16;100.00;100965.72;5002770;28;20533;-49
2020/12/21 02:30:40;;;;;;;0.30;0.20;;;;;;;5.90;100.00;100964.84;4998419;28;20452;-49
2020/12/21 02:33:07;;;;;;;0.20;0.20;;;;;;;5.85;100.00;100956.00;5006532;28;20884;-49
2020/12/21 02:35:34;;;;;;;0.30;0.20;;;;;;;5.92;100.00;100961.34;5001107;28;21041;-49
2020/12/21 02:38:06;;;;;;;0.27;0.20;;;;;;;5.97;100.00;100963.97;5001629;28;20982;-49
2020/12/21 02:40:34;;;;;;;0.30;0.20;;;;;;;5.89;100.00;100971.84;5002020;28;20894;-49
2020/12/21 02:43:16;;;;;;;0.30;0.20;;;;;;;5.85;100.00;100974.47;5001441;28;20472;-49
2020/12/21 02:45:43;;;;;;;0.30;0.20;;;;;;;5.77;100.00;100966.56;5004748;28;20453;-50
2020/12/21 02:48:10;;;;;;;2.57;2.57;;;;;;;5.96;100.00;100962.22;5008158;28;20531;-49
2020/12/21 02:50:36;;;;;;;0.20;0.20;;;;;;;5.90;100.00;100963.09;5004653;28;20926;-49
2020/12/21 02:53:03;;;;;;;0.20;0.17;;;;;;;6.02;100.00;100967.47;5000963;28;20539;-49
2020/12/21 02:55:29;;;;;;;0.20;0.20;;;;;;;6.34;100.00;100966.63;5004330;28;20462;-49
2020/12/21 02:57:55;;;;;;;0.50;0.47;;;;;;;5.93;100.00;100973.66;4984787;28;20527;-49
2020/12/21 03:00:21;;;;;;;0.20;0.10;;;;;;;6.00;100.00;100965.72;5013843;28;20499;-49
2020/12/21 03:02:48;;;;;;;0.20;0.20;;;;;;;5.83;100.00;100966.56;5004592;28;20453;-49
2020/12/21 03:05:14;;;;;;;0.20;0.10;;;;;;;5.64;100.00;100970.03;4975803;28;20454;-49
2020/12/21 03:07:40;;;;;;;0.20;0.20;;;;;;;5.49;100.00;100967.38;4995705;28;20527;-49
2020/12/21 03:10:06;;;;;;;0.30;0.20;;;;;;;5.75;100.00;100970.91;5003536;28;20453;-49
2020/12/21 03:12:32;;;;;;;0.20;0.10;;;;;;;5.79;100.00;100979.75;5007791;28;20453;-50
2020/12/21 03:14:59;;;;;;;0.20;0.10;;;;;;;5.99;100.00;100980.69;5004866;28;20524;-49
2020/12/21 03:17:25;;;;;;;0.30;0.20;;;;;;;5.70;100.00;100980.59;5000335;28;20908;-49
2020/12/21 03:19:51;;;;;;;0.20;0.10;;;;;;;5.72;100.00;100970.03;5003503;28;20457;-49
2020/12/21 03:22:17;;;;;;;0.30;0.20;;;;;;;5.82;100.00;100970.06;5007193;28;20963;-49
2020/12/21 03:24:43;;;;;;;0.20;0.10;;;;;;;5.77;100.00;100976.22;4994372;28;20476;-50
2020/12/21 03:27:10;;;;;;;0.30;0.20;;;;;;;5.84;100.00;100972.72;5006953;28;20994;-48
2020/12/21 03:29:36;;;;;;;0.20;0.10;;;;;;;5.97;100.00;100976.28;5004722;28;20495;-47
2020/12/21 03:32:02;;;;;;;0.30;0.20;;;;;;;5.59;100.00;100974.41;5001937;28;20450;-48
2020/12/21 03:34:28;;;;;;;0.20;0.10;;;;;;;5.81;100.00;100972.72;4985047;28;20496;-48
2020/12/21 03:36:55;;;;;;;0.23;0.10;;;;;;;5.39;100.00;100957.66;4993924;28;20473;-48
2020/12/21 03:39:21;;;;;;;0.30;0.20;;;;;;;5.57;100.00;100958.59;5004293;28;20518;-50
2020/12/21 03:41:47;;;;;;;0.20;0.20;;;;;;;5.55;100.00;100962.97;5009538;28;21009;-50
2020/12/21 03:44:13;;;;;;;0.20;0.20;;;;;;;5.50;100.00;100953.31;5004280;28;20456;-49
2020/12/21 03:46:41;;;;;;;0.30;0.20;;;;;;;5.54;100.00;100955.94;4995725;28;20453;-50
2020/12/21 03:49:07;;;;;;;0.20;0.20;;;;;;;5.60;100.00;100955.94;5004196;28;20452;-50
2020/12/21 03:51:33;;;;;;;0.20;0.20;;;;;;;5.53;100.00;100958.59;5000094;28;20452;-50
2020/12/21 03:53:59;;;;;;;0.20;0.20;;;;;;;5.34;100.00;100955.00;5002565;28;20450;-50
2020/12/21 03:56:25;;;;;;;0.20;0.20;;;;;;;5.65;100.00;100953.34;5001951;28;20958;-51
2020/12/21 03:58:51;;;;;;;0.20;0.10;;;;;;;5.53;100.00;100946.28;4995205;28;20460;-50
2020/12/21 04:01:17;;;;;;;0.20;0.10;;;;;;;5.33;100.00;100947.97;4999538;28;21001;-50
2020/12/21 04:03:44;;;;;;;0.20;0.20;;;;;;;5.39;100.00;100944.47;4995486;28;20464;-51
2020/12/21 04:06:10;;;;;;;0.30;0.20;;;;;;;5.30;100.00;100940.94;4995440;28;20459;-50
2020/12/21 04:08:36;;;;;;;0.20;0.20;;;;;;;5.32;100.00;100938.28;5001889;28;20588;-50
2020/12/21 04:11:05;;;;;;;0.30;0.20;;;;;;;5.28;100.00;100931.25;5006179;28;20458;-50
2020/12/21 04:13:31;;;;;;;0.20;0.10;;;;;;;5.30;100.00;100935.66;5004595;28;20448;-51
2020/12/21 04:16:04;;;;;;;0.20;0.20;;;;;;;5.19;100.00;100931.22;4981298;28;20457;-49
2020/12/21 04:18:30;;;;;;;0.30;0.20;;;;;;;5.37;100.00;100922.50;5005136;28;20535;-50
2020/12/21 04:20:56;;;;;;;0.20;0.10;;;;;;;5.38;100.00;100932.19;5007146;28;20497;-50
2020/12/21 04:23:22;;;;;;;0.20;0.10;;;;;;;5.29;100.00;100940.94;5005340;28;20946;-50
2020/12/21 04:25:49;;;;;;;0.20;0.10;;;;;;;5.20;100.00;100941.75;4999350;28;20511;-50
2020/12/21 04:28:16;;;;;;;0.30;0.10;;;;;;;5.01;100.00;100939.94;5012651;28;20871;-49
2020/12/21 04:30:42;;;;;;;0.30;0.20;;;;;;;4.99;100.00;100941.69;4993720;28;20446;-50
2020/12/21 04:33:09;;;;;;;0.20;0.10;;;;;;;5.00;100.00;100935.53;5005905;28;20455;-50
2020/12/21 04:35:35;;;;;;;0.20;0.20;;;;;;;5.00;100.00;100946.97;4999111;28;20455;-51
2020/12/21 04:38:01;;;;;;;0.20;0.20;;;;;;;5.02;100.00;100952.25;5000251;28;20506;-51
2020/12/21 04:40:27;;;;;;;0.30;0.20;;;;;;;5.09;100.00;100955.78;5006025;28;20496;-50
2020/12/21 04:42:53;;;;;;;0.20;0.20;;;;;;;5.02;100.00;100946.97;5005125;28;20460;-50
2020/12/21 04:45:22;;;;;;;0.20;0.20;;;;;;;5.06;100.00;100954.00;4999518;28;20456;-51
2020/12/21 04:47:49;;;;;;;0.20;0.20;;;;;;;4.96;100.00;100955.72;4999675;28;20477;-50
2020/12/21 04:50:17;;;;;;;0.20;0.10;;;;;;;4.97;100.00;100952.22;4999212;28;20827;-50
2020/12/21 04:52:49;;;;;;;0.20;0.20;;;;;;;5.06;100.00;100959.28;4999319;28;20441;-50
2020/12/21 04:55:20;;;;;;;0.30;0.20;;;;;;;5.00;100.00;100954.88;5004938;28;20512;-50
2020/12/21 04:58:00;;;;;;;0.20;0.20;;;;;;;4.96;100.00;100955.72;4994901;28;20470;-49
2020/12/21 05:00:28;;;;;;;0.20;0.10;;;;;;;4.85;100.00;100960.06;5002708;28;20532;-49
2020/12/21 05:02:55;;;;;;;0.20;0.10;;;;;;;4.54;100.00;100952.84;5009853;28;20457;-49
2020/12/21 05:05:32;;;;;;;0.60;0.60;;;;;;;4.58;100.00;100952.00;4988302;28;20512;-49
2020/12/21 05:08:12;;;;;;;0.20;0.20;;;;;;;4.40;100.00;100955.41;5009955;28;20472;-49
2020/12/21 05:10:42;;;;;;;0.20;0.10;;;;;;;4.38;100.00;100941.31;5009736;28;20945;-49
2020/12/21 05:13:09;;;;;;;0.20;0.10;;;;;;;4.40;100.00;100937.84;5003740;28;20967;-50
2020/12/21 05:15:35;;;;;;;0.20;0.20;;;;;;;4.08;100.00;100927.06;5002752;28;20848;-49
2020/12/21 05:18:07;;;;;;;0.20;0.10;;;;;;;4.04;100.00;100929.66;5007984;28;20485;-50
2020/12/21 05:20:35;;;;;;;0.77;0.63;;;;;;;4.03;100.00;100935.81;5010007;28;20484;-50
2020/12/21 05:23:03;;;;;;;0.20;0.10;;;;;;;4.22;100.00;100936.81;5005826;28;20522;-49
2020/12/21 05:25:29;;;;;;;0.30;0.10;;;;;;;4.22;100.00;100926.28;5002983;28;20467;-49
2020/12/21 05:28:08;;;;;;;0.20;0.20;;;;;;;4.05;100.00;100926.16;5006362;28;20473;-50
2020/12/21 05:30:34;;;;;;;0.20;0.17;;;;;;;4.09;100.00;100933.22;5009695;28;20508;-49
2020/12/21 05:33:02;;;;;;;0.20;0.20;;;;;;;4.36;100.00;100927.28;5007607;28;20506;-49
2020/12/21 05:35:29;;;;;;;0.20;0.10;;;;;;;4.29;100.00;100926.38;5002776;28;20536;-49
2020/12/21 05:37:56;;;;;;;0.20;0.10;;;;;;;4.38;100.00;100928.16;5004168;28;20469;-49
2020/12/21 05:40:25;;;;;;;0.20;0.20;;;;;;;4.47;100.00;100929.09;5009078;28;20508;-49
2020/12/21 05:42:51;;;;;;;0.20;0.20;;;;;;;4.27;100.00;100928.09;5008160;28;20527;-49
2020/12/21 05:45:18;;;;;;;0.20;0.10;;;;;;;4.26;100.00;100931.63;5002066;28;20448;-49
2020/12/21 05:47:48;;;;;;;0.20;0.10;;;;;;;4.04;100.00;100925.28;5003970;28;20480;-49
2020/12/21 05:50:20;;;;;;;0.20;0.17;;;;;;;4.21;100.00;100935.06;5009278;28;20508;-49
2020/12/21 05:52:52;;;;;;;0.20;0.10;;;;;;;4.23;100.00;100925.41;5008931;28;20452;-51
2020/12/21 05:55:20;;;;;;;1.80;1.70;;;;;;;4.12;100.00;100920.09;5003718;28;20449;-49
2020/12/21 05:57:48;;;;;;;0.70;0.70;;;;;;;4.08;100.00;100913.03;4989050;28;20478;-49
2020/12/21 06:00:15;;;;;;;0.20;0.10;;;;;;;4.05;100.00;100916.53;5006788;28;20454;-49
2020/12/21 06:02:42;;;;;;;0.30;0.20;;;;;;;4.07;100.00;100916.53;5008990;28;20945;-49
2020/12/21 06:05:12;;;;;;;0.20;0.10;;;;;;;4.04;100.00;100904.25;4985496;28;20461;-49
2020/12/21 06:07:49;;;;;;;0.27;0.20;;;;;;;4.01;100.00;100900.72;5008593;28;20524;-49
2020/12/21 06:10:16;;;;;;;0.40;0.40;;;;;;;3.98;100.00;100905.97;5007039;28;20456;-50
2020/12/21 06:12:50;;;;;;;0.20;0.20;;;;;;;4.03;100.00;100898.97;5001916;28;20452;-49
2020/12/21 06:15:21;;;;;;;1.67;1.57;;;;;;;3.98;100.00;100892.81;5003030;28;20456;-53
2020/12/21 06:17:48;;;;;;;0.30;0.20;;;;;;;4.00;100.00;100896.34;5008719;28;21016;-49
2020/12/21 06:20:20;;;;;;;0.20;0.20;;;;;;;3.80;100.00;100886.50;5008841;28;20448;-49
2020/12/21 06:22:46;;;;;;;0.20;0.20;;;;;;;3.93;100.00;100886.63;5002808;28;20503;-50
2020/12/21 06:25:23;;;;;;;0.30;0.20;;;;;;;3.92;100.00;100892.75;5001403;28;20836;-49
2020/12/21 06:27:50;;;;;;;0.20;0.20;;;;;;;4.01;100.00;100879.69;5004655;28;20468;-49
2020/12/21 06:30:17;;;;;;;0.20;0.10;;;;;;;4.24;100.00;100904.38;5001862;28;20464;-49
2020/12/21 06:32:45;;;;;;;0.20;0.20;;;;;;;4.23;100.00;100896.47;4984769;28;20833;-49
2020/12/21 06:35:19;;;;;;;0.20;0.10;;;;;;;4.14;100.00;100897.31;5006789;28;20840;-50
2020/12/21 06:37:59;;;;;;;0.20;0.20;;;;;;;3.98;100.00;100898.06;4989308;28;20486;-49
2020/12/21 06:40:34;;;;;;;0.20;0.20;;;;;;;4.00;100.00;100889.31;5001313;28;20492;-49
2020/12/21 06:43:14;;;;;;;0.20;0.10;;;;;;;3.82;100.00;100894.41;5001750;28;20894;-49
2020/12/21 06:45:41;;;;;;;0.20;0.20;;;;;;;4.01;100.00;100896.34;5003559;28;20503;-49
2020/12/21 06:48:08;;;;;;;0.20;0.10;;;;;;;3.94;100.00;100893.63;5001335;28;20469;-49
2020/12/21 06:50:35;;;;;;;0.20;0.20;;;;;;;3.86;100.00;100896.22;5006092;28;20449;-49
2020/12/21 06:53:05;;;;;;;0.20;0.20;;;;;;;3.93;100.00;100899.75;5008035;28;20460;-49
2020/12/21 06:55:33;;;;;;;3.83;2.57;;;;;;;3.93;100.00;100899.75;5004599;28;20471;-49
2020/12/21 06:58:00;;;;;;;0.20;0.20;;;;;;;3.79;100.00;100905.78;4989408;28;20468;-51
2020/12/21 07:00:26;;;;;;;0.30;0.20;;;;;;;3.83;100.00;100909.31;5006559;28;20497;-50
2020/12/21 07:02:53;;;;;;;0.30;0.20;;;;;;;3.77;100.00;100904.91;5011795;28;20457;-49
2020/12/21 07:05:20;;;;;;;0.20;0.20;;;;;;;3.64;100.00;100915.28;5001622;28;20456;-49
2020/12/21 07:07:59;;;;;;;0.20;0.10;;;;;;;3.76;100.00;100912.78;5002387;28;20468;-49
2020/12/21 07:10:26;;;;;;;0.20;0.10;;;;;;;3.87;100.00;100911.13;5001580;28;20441;-49
2020/12/21 07:12:53;;;;;;;0.20;0.13;;;;;;;4.01;100.00;100909.50;5007407;28;20927;-49
2020/12/21 07:15:21;;;;;;;0.20;0.13;;;;;;;3.99;100.00;100916.50;5007416;28;20485;-50
2020/12/21 07:17:47;;;;;;;0.20;0.10;;;;;;;3.83;100.00;100914.56;5001359;28;20484;-49
2020/12/21 07:20:13;;;;;;;1.43;1.43;;;;;;;3.93;100.00;100918.19;4999412;28;21006;-50
2020/12/21 07:22:42;;;;;;;0.20;0.10;;;;;;;3.91;100.00;100925.16;5006871;28;20456;-50
2020/12/21 07:25:11;;;;;;;0.20;0.10;;;;;;;3.72;100.00;100917.13;5008848;28;20448;-49
2020/12/21 07:27:38;;;;;;;0.90;0.90;;;;;;;3.89;100.00;100924.28;5003307;28;21167;-49
2020/12/21 07:30:08;;;;;;;0.20;0.20;;;;;;;3.89;100.00;100919.91;5000773;28;20950;-49
2020/12/21 07:32:34;;;;;;;1.90;1.80;;;;;;;3.91;100.00;100919.91;4986553;28;20449;-50
2020/12/21 07:35:00;;;;;;;0.20;0.10;;;;;;;4.05;100.00;100918.28;5007431;28;20456;-49
2020/12/21 07:37:31;;;;;;;0.20;0.10;;;;;;;4.22;100.00;100918.41;5002666;28;20503;-49
2020/12/21 07:39:57;;;;;;;0.20;0.10;;;;;;;4.28;100.00;100919.34;5000202;28;20453;-49
2020/12/21 07:42:27;;;;;;;0.20;0.13;;;;;;;4.23;100.00;100910.50;5004515;28;20489;-49
2020/12/21 07:44:58;;;;;;;0.30;0.17;;;;;;;4.30;100.00;100916.72;5007043;28;20462;-49
2020/12/21 07:47:29;;;;;;;1.67;1.63;;;;;;;4.65;100.00;100914.28;5004178;28;20469;-50
2020/12/21 07:49:56;;;;;;;0.20;0.20;;;;;;;4.51;100.00;100914.22;4999542;28;20453;-52
2020/12/21 07:52:23;;;;;;;0.20;0.10;;;;;;;4.50;100.00;100915.09;5002336;28;20939;-49
2020/12/21 07:54:50;;;;;;;0.20;0.20;;;;;;;4.54;100.00;100913.38;5006639;28;20960;-49
2020/12/21 07:57:17;;;;;;;0.20;0.10;;;;;;;4.57;100.00;100916.00;4982944;28;20470;-50
2020/12/21 07:59:54;;;;;;;0.20;0.20;;;;;;;4.60;100.00;100916.03;4998357;28;20597;-50
2020/12/21 08:02:26;;;;;;;0.20;0.20;;;;;;;4.58;100.00;100917.78;4999846;28;20480;-48
2020/12/21 08:04:53;;;;;;;0.20;0.10;;;;;;;4.89;100.00;100903.00;4995247;28;20465;-50
2020/12/21 08:07:26;;;;;;;0.20;0.20;;;;;;;4.69;100.00;100909.06;4999472;28;20488;-49
2020/12/21 08:09:52;;;;;;;0.20;0.20;;;;;;;4.76;100.00;100910.84;5004962;28;20445;-50
2020/12/21 08:12:18;;;;;;;0.20;0.10;;;;;;;4.81;100.00;100916.16;5006075;28;20449;-49
2020/12/21 08:14:45;;;;;;;0.20;0.20;;;;;;;4.80;100.00;100922.28;5000697;28;20850;-49
2020/12/21 08:17:12;;;;;;;0.20;0.10;;;;;;;4.81;100.00;100925.81;4999322;28;21333;-49
2020/12/21 08:19:48;;;;;;;0.30;0.20;;;;;;;4.84;100.00;100917.91;5005155;28;20532;-52
2020/12/21 08:22:19;;;;;;;0.20;0.20;;;;;;;4.75;100.00;100916.09;5006000;28;20492;-51
2020/12/21 08:24:45;;;;;;;0.20;0.20;;;;;;;4.87;100.00;100910.03;5002800;28;20456;-51
2020/12/21 08:27:19;;;;;;;0.20;0.20;;;;;;;4.79;100.00;100912.59;4999342;28;20468;-51
2020/12/21 08:29:48;;;;;;;0.20;0.10;;;;;;;4.80;100.00;100914.41;5002414;28;20456;-51
2020/12/21 08:32:14;;;;;;;0.30;0.10;;;;;;;4.78;100.00;100902.06;4989548;28;20442;-51
2020/12/21 08:34:41;;;;;;;0.20;0.10;;;;;;;4.73;100.00;100902.94;5008482;28;20463;-51
2020/12/21 08:37:08;;;;;;;0.20;0.10;;;;;;;4.84;100.00;100899.47;5001420;28;20479;-51
2020/12/21 08:39:34;;;;;;;0.20;0.10;;;;;;;4.73;100.00;100900.31;5001662;28;20512;-51
2020/12/21 08:42:00;;;;;;;0.20;0.10;;;;;;;4.94;100.00;100893.38;5006004;28;21014;-51
2020/12/21 08:44:28;;;;;;;0.20;0.10;;;;;;;4.89;100.00;100903.00;5004253;28;20472;-51
2020/12/21 08:46:56;;;;;;;0.20;0.20;;;;;;;4.92;100.00;100896.00;4999308;28;20959;-51
2020/12/21 08:49:25;;;;;;;0.20;0.10;;;;;;;4.87;100.00;100900.38;5000964;28;20454;-51
2020/12/21 08:51:52;;;;;;;0.53;0.53;;;;;;;4.87;100.00;100902.13;5005724;28;20453;-51
2020/12/21 08:54:18;;;;;;;0.20;0.10;;;;;;;4.98;100.00;100896.03;5004928;28;20813;-52
2020/12/21 08:56:52;;;;;;;0.20;0.17;;;;;;;4.94;100.00;100901.28;4993344;28;20453;-51
2020/12/21 08:59:19;;;;;;;0.20;0.20;;;;;;;4.77;100.00;100898.56;5006151;28;20452;-51
2020/12/21 09:01:45;;;;;;;0.20;0.20;;;;;;;4.82;100.00;100899.47;5000854;28;20488;-51
2020/12/21 09:04:12;;;;;;;0.20;0.20;;;;;;;4.83;100.00;100890.69;4988934;28;20951;-52
2020/12/21 09:06:39;;;;;;;0.20;0.10;;;;;;;4.75;100.00;100895.03;5000906;28;20463;-51
2020/12/21 09:09:07;;;;;;;0.20;0.17;;;;;;;4.87;100.00;100884.56;4999291;28;20519;-52
2020/12/21 09:11:33;;;;;;;0.20;0.10;;;;;;;4.88;100.00;100888.06;5003665;28;21018;-51
2020/12/21 09:13:59;;;;;;;0.30;0.20;;;;;;;5.04;100.00;100893.41;5005294;28;20831;-51
2020/12/21 09:16:27;;;;;;;0.20;0.10;;;;;;;5.05;100.00;100892.53;5000829;28;20465;-52
2020/12/21 09:18:55;;;;;;;0.20;0.20;;;;;;;5.06;100.00;100896.03;4998534;28;20465;-52
2020/12/21 09:21:22;;;;;;;0.20;0.20;;;;;;;5.05;100.00;100897.78;5000587;28;20878;-52
2020/12/21 09:23:49;;;;;;;0.20;0.10;;;;;;;5.13;100.00;100903.09;4992684;28;20453;-51
2020/12/21 09:26:17;;;;;;;0.20;0.20;;;;;;;5.12;100.00;100897.84;4991447;28;20468;-52
2020/12/21 09:28:44;;;;;;;0.20;0.10;;;;;;;5.18;100.00;100897.84;5005824;28;20469;-52
2020/12/21 09:31:14;;;;;;;0.30;0.17;;;;;;;5.20;100.00;100890.81;4987882;28;20798;-52
2020/12/21 09:33:45;;;;;;;0.20;0.10;;;;;;;5.26;100.00;100891.72;4993695;28;20453;-50
2020/12/21 09:36:12;;;;;;;0.20;0.17;;;;;;;5.31;100.00;100889.09;5002238;28;20481;-51
2020/12/21 09:38:38;;;;;;;0.20;0.10;;;;;;;5.33;100.00;100875.03;5004887;28;20893;-51
2020/12/21 09:41:05;;;;;;;0.20;0.17;;;;;;;5.48;100.00;100875.94;5002463;28;20488;-51
2020/12/21 09:43:32;;;;;;;0.20;0.20;;;;;;;5.53;100.00;100875.09;4998010;28;20445;-52
2020/12/21 09:45:58;;;;;;;0.20;0.20;;;;;;;5.55;100.00;100875.97;5000327;28;20999;-51
2020/12/21 09:48:24;;;;;;;0.30;0.20;;;;;;;5.65;100.00;100877.75;5008260;28;20541;-51
2020/12/21 09:50:50;;;;;;;0.30;0.20;;;;;;;5.70;100.00;100884.78;5006334;28;20934;-51
2020/12/21 09:53:17;;;;;;;0.20;0.13;;;;;;;5.69;100.00;100875.97;5001333;28;20448;-51
2020/12/21 09:55:43;;;;;;;0.27;0.17;;;;;;;5.70;100.00;100866.31;5003087;28;20445;-51
2020/12/21 09:58:09;;;;;;;1.10;1.10;;;;;;;5.71;100.00;100862.78;4986790;28;20472;-52
2020/12/21 10:00:36;;;;;;;0.27;0.20;;;;;;;5.67;100.00;100851.38;5002843;28;20560;-51
2020/12/21 10:03:02;;;;;;;0.20;0.17;;;;;;;5.87;100.00;100851.34;5006807;28;20890;-51
2020/12/21 10:05:29;;;;;;;0.20;0.20;;;;;;;5.85;100.00;100843.44;4998375;28;20515;-51
2020/12/21 10:07:55;;;;;;;0.20;0.20;;;;;;;5.83;100.00;100839.06;5001145;28;20977;-51
2020/12/21 10:10:21;;;;;;;0.20;0.10;;;;;;;5.86;100.00;100825.84;5002758;28;20446;-51
2020/12/21 10:12:47;;;;;;;0.20;0.20;;;;;;;5.97;100.00;100820.63;5007560;28;20965;-51
2020/12/21 10:15:13;;;;;;;0.30;0.30;;;;;;;6.09;100.00;100820.59;5007102;28;20942;-52
2020/12/21 10:17:40;;;;;;;0.20;0.20;;;;;;;6.16;100.00;100810.00;5000813;28;20866;-52
2020/12/21 10:20:07;;;;;;;0.30;0.20;;;;;;;6.08;100.00;100806.53;5002200;28;20461;-52
2020/12/21 10:22:33;;;;;;;0.20;0.10;;;;;;;6.24;100.00;100804.72;5007754;28;20489;-51
2020/12/21 10:24:59;;;;;;;2.47;2.27;;;;;;;6.33;100.00;100791.50;5006560;28;20969;-51
2020/12/21 10:27:27;;;;;;;0.30;0.20;;;;;;;6.16;100.00;100773.06;5001055;28;20471;-51
2020/12/21 10:29:54;;;;;;;0.20;0.10;;;;;;;6.10;100.00;100780.13;5001759;28;20943;-52
2020/12/21 10:32:20;;;;;;;0.20;0.20;;;;;;;6.35;100.00;100779.19;4986313;28;20445;-51
2020/12/21 10:34:46;;;;;;;0.23;0.20;;;;;;;6.45;100.00;100778.25;5006117;28;20461;-51
2020/12/21 10:37:12;;;;;;;0.20;0.20;;;;;;;6.80;100.00;100764.00;5000954;28;20491;-51
2020/12/21 10:39:49;;;;;;;0.30;0.20;;;;;;;6.60;100.00;100757.94;5000874;28;20441;-51
2020/12/21 10:42:15;;;;;;;0.30;0.20;;;;;;;6.51;100.00;100758.88;5005665;28;20563;-51
2020/12/21 10:44:41;;;;;;;0.30;0.20;;;;;;;6.43;100.00;100744.81;5007213;28;20461;-51
2020/12/21 10:47:07;;;;;;;0.30;0.20;;;;;;;6.73;100.00;100755.25;5001494;28;20473;-51
2020/12/21 10:49:34;;;;;;;0.30;0.20;;;;;;;6.81;100.00;100750.78;5001448;28;20457;-51
2020/12/21 10:52:01;;;;;;;0.30;0.20;;;;;;;7.07;100.00;100763.81;5006489;28;20453;-51
2020/12/21 10:54:28;;;;;;;0.30;0.20;;;;;;;7.05;100.00;100762.97;5007080;28;20552;-51
2020/12/21 10:56:54;;;;;;;0.30;0.20;;;;;;;7.01;100.00;100752.44;4987882;28;20480;-50
2020/12/21 10:59:20;;;;;;;0.20;0.20;;;;;;;7.34;100.00;100744.25;5001609;28;20467;-51
2020/12/21 11:01:47;;;;;;;0.30;0.20;;;;;;;7.51;100.00;100754.66;4993509;28;20499;-50
2020/12/21 11:04:13;;;;;;;0.30;0.17;;;;;;;7.54;100.00;100754.66;4998282;28;20536;-50
2020/12/21 11:06:41;;;;;;;0.20;0.20;;;;;;;7.53;100.00;100763.47;4997099;28;20456;-51
2020/12/21 11:09:07;;;;;;;0.20;0.10;;;;;;;7.49;100.00;100756.44;4995533;28;20455;-50
2020/12/21 11:11:33;;;;;;;0.30;0.20;;;;;;;7.51;100.00;100751.16;4996892;28;20445;-50
2020/12/21 11:13:59;;;;;;;0.27;0.20;;;;;;;7.53;100.00;100738.78;5001358;28;21031;-50
2020/12/21 11:16:26;;;;;;;1.50;1.40;;;;;;;7.34;100.00;100743.38;4998308;28;20534;-50
2020/12/21 11:18:52;;;;;;;0.30;0.20;;;;;;;7.63;100.00;100732.53;4996212;28;20465;-50
2020/12/21 11:21:18;;;;;;;2.53;2.33;;;;;;;7.40;100.00;100722.13;4999559;28;21014;-50
2020/12/21 11:23:57;;;;;;;0.30;0.10;;;;;;;7.38;100.00;100703.66;5002421;28;20446;-50
2020/12/21 11:26:24;;;;;;;11.30;9.90;;;;;;;7.47;100.00;100705.34;4999945;28;20475;-50